createdAt,value
2024-01-20T00:01:39.978Z,19.76
2024-01-20T00:16:42.869Z,19.75
2024-01-20T00:31:45.363Z,19.75
2024-01-20T00:46:47.217Z,19.74
2024-01-20T01:01:49.904Z,19.73
2024-01-20T01:16:51.868Z,19.71
2024-01-20T01:31:53.606Z,19.70
2024-01-20T01:46:56.247Z,19.71
2024-01-20T02:01:58.815Z,19.67
2024-01-20T02:17:01.346Z,19.66
2024-01-20T02:32:04.046Z,19.66
2024-01-20T02:47:07.390Z,19.64
2024-01-20T03:02:10.276Z,19.62
2024-01-20T03:17:12.849Z,19.61
2024-01-20T03:32:14.660Z,19.59
2024-01-20T03:47:16.349Z,19.58
2024-01-20T04:02:18.135Z,19.56
2024-01-20T04:17:20.723Z,19.55
2024-01-20T04:32:22.412Z,19.53
2024-01-20T04:47:24.124Z,19.55
2024-01-20T05:02:26.685Z,19.54
2024-01-20T05:17:29.371Z,19.54
2024-01-20T05:32:31.286Z,19.54
2024-01-20T05:47:33.051Z,19.54
2024-01-20T06:02:35.586Z,19.56
2024-01-20T06:17:37.399Z,19.58
2024-01-20T06:32:40.042Z,19.58
2024-01-20T06:47:42.767Z,19.57
2024-01-20T07:02:45.771Z,19.59
2024-01-20T07:17:48.552Z,19.62
2024-01-20T07:32:51.960Z,19.66
2024-01-20T07:47:55.550Z,19.68
2024-01-20T08:02:58.218Z,19.57
2024-01-20T08:18:00.912Z,19.62
2024-01-20T08:33:05.273Z,19.68
2024-01-20T08:48:08.889Z,19.75
2024-01-20T09:03:11.586Z,19.79
2024-01-20T09:18:13.635Z,19.87
2024-01-20T09:33:15.520Z,19.91
2024-01-20T09:48:17.334Z,19.96
2024-01-20T10:03:20.389Z,19.98
2024-01-20T10:18:23.093Z,20.03
2024-01-20T10:33:25.789Z,20.06
2024-01-20T10:48:30.336Z,20.09
2024-01-20T11:03:33.461Z,20.11
2024-01-20T11:18:40.546Z,20.17
2024-01-20T11:33:47.349Z,20.20
2024-01-20T11:48:50.241Z,20.23
2024-01-20T12:03:52.933Z,20.28
2024-01-20T12:18:56.425Z,20.32
2024-01-20T12:33:59.232Z,20.33
2024-01-20T12:49:01.848Z,20.32
2024-01-20T13:04:04.511Z,20.31
2024-01-20T13:19:07.382Z,20.30
2024-01-20T13:34:10.422Z,20.32
2024-01-20T13:49:13.603Z,20.30
2024-01-20T14:04:16.460Z,20.31
2024-01-20T14:19:19.167Z,20.33
2024-01-20T14:34:22.664Z,20.29
2024-01-20T14:49:24.533Z,20.30
2024-01-20T15:04:26.551Z,20.37
2024-01-20T15:19:29.332Z,20.35
2024-01-20T15:34:32.784Z,20.35
2024-01-20T15:49:35.526Z,20.36
2024-01-20T16:04:38.052Z,20.36
2024-01-20T16:19:40.662Z,20.35
2024-01-20T16:34:43.304Z,20.36
2024-01-20T16:49:46.702Z,20.36
2024-01-20T17:04:49.293Z,20.38
2024-01-20T17:19:51.856Z,20.39
2024-01-20T17:34:54.466Z,20.40
2024-01-20T17:49:57.714Z,20.41
2024-01-20T18:05:01.171Z,20.42
2024-01-20T18:20:03.831Z,20.40
2024-01-20T18:35:07.013Z,20.42
2024-01-20T18:50:09.459Z,20.42
2024-01-20T19:05:12.263Z,20.40
2024-01-20T19:20:14.860Z,20.39
2024-01-20T19:35:16.505Z,20.39
2024-01-20T19:50:18.335Z,20.38
2024-01-20T20:05:20.888Z,20.38
2024-01-20T20:20:22.862Z,20.33
2024-01-20T20:35:24.679Z,20.31
2024-01-20T20:50:27.320Z,20.26
2024-01-20T21:05:29.833Z,20.26
2024-01-20T21:20:31.560Z,20.20
2024-01-20T21:35:34.309Z,20.15
2024-01-20T21:50:36.068Z,20.15
2024-01-20T22:05:38.218Z,20.14
2024-01-20T22:20:40.779Z,20.12
2024-01-20T22:35:43.337Z,20.16
2024-01-20T22:50:46.141Z,20.14
2024-01-20T23:05:48.693Z,20.16
2024-01-20T23:20:51.464Z,20.16
2024-01-20T23:35:53.968Z,20.18
2024-01-20T23:50:55.779Z,20.17
